• Join FlightAware (Why Join?)
  • Login
  • US Flag 
09:03AM EDT


 

Airport Tracker/Info


-or-


 

Live Flight TrackerFlight Track Log ✈ AAL963 ✈ 19-May-2013 ✈ KDFW - SBGR / GRU

Flight Track Log - Related Links

Times and Time Zones

All times are in EDT time to prevent confusion due to time zone crossing. See the AAL963 flight status page for this flight to view local times or setup timezone preferences in your user account.

Time Position Orientation Groundspeed Altitude Reporting Facility
EDT Latitude Longitude Course Direction KTS MPH feet Rate Location/Type
09:13PM 32.8390 -97.0590 192° South 173 199 3,200  Level FlightAware
09:13PM 32.8210 -97.0640 193° South 194 223 3,500 1,200 Climbing FlightAware
09:14PM 32.7860 -97.0720 191° South 220 253 4,400 1,680 Climbing FlightAware
09:14PM 32.7760 -97.0740 190° South 221 254 4,800 1,800 Climbing FlightAware
09:15PM 32.7430 -97.0810 190° South 239 275 5,600 1,680 Climbing FlightAware
09:15PM 32.7090 -97.0870 188° South 250 288 6,500 1,680 Climbing FlightAware
09:15PM 32.6890 -97.0890 185° South 257 296 7,000 1,320 Climbing FlightAware
09:16PM 32.6620 -97.0830 169° South 286 329 7,400 1,680 Climbing FlightAware
09:16PM 32.6260 -97.0580 150° Southeast 295 339 8,400 2,100 Climbing FlightAware
09:16PM 32.6140 -97.0500 151° Southeast 295 339 8,800 2,280 Climbing FlightAware
09:17PM 32.5650 -97.0130 148° Southeast 288 331 10,500 1,800 Climbing FlightAware
09:18PM 32.5150 -96.9780 149° Southeast 314 361 11,400 1,260 Climbing FlightAware
09:19PM 32.4540 -96.9360 150° Southeast 344 396 12,300 1,200 Climbing FlightAware
09:19PM 32.3970 -96.8950 149° Southeast 370 426 13,100 1,260 Climbing FlightAware
09:20PM 32.3400 -96.8550 149° Southeast 389 448 14,000 1,680 Climbing FlightAware
09:21PM 32.2670 -96.8090 152° Southeast 390 449 15,500 1,920 Climbing FlightAware
09:21PM 32.2123 -96.7883 162° South 396 456 16,400 1,620 Climbing FlightAware ADS-B
09:22PM 32.1583 -96.7681 162° South 410 472 17,100 1,560 Climbing FlightAware ADS-B
09:22PM 32.1019 -96.7469 162° South 417 480 18,000 1,440 Climbing FlightAware ADS-B
09:22PM 32.0670 -96.7330 161° South 18,300 1,140 Climbing FlightAware ADS-B
09:23PM 32.0447 -96.7251 163° South 432 497 18,600 2,040 Climbing FlightAware ADS-B
09:23PM 31.9721 -96.6971 162° South 434 499 19,900 1,740 Climbing FlightAware ADS-B
09:24PM 31.8992 -96.6697 162° South 438 504 20,800 1,500 Climbing FlightAware ADS-B
09:24PM 31.8633 -96.6568 163° South 448 516 21,300 1,680 Climbing FlightAware ADS-B
09:24PM 31.8480 -96.6510 162° South 21,500 1,680 Climbing FlightAware ADS-B
09:25PM 31.8014 -96.6313 160° South 453 521 22,200 1,560 Climbing FlightAware ADS-B
09:25PM 31.7790 -96.6220 161° South 432 497 22,400 1,380 Climbing FlightAware ADS-B
09:25PM 31.7408 -96.6053 160° South 460 529 22,900 1,620 Climbing FlightAware ADS-B
09:26PM 31.7020 -96.5890 160° South 635 731 23,500 1,680 Climbing FlightAware ADS-B
09:26PM 31.6772 -96.5782 160° South 463 533 23,800 1,500 Climbing FlightAware ADS-B
09:26PM 31.6270 -96.5570 160° South 637 733 24,400 1,380 Climbing FlightAware ADS-B
09:26PM 31.6152 -96.5526 162° South 466 536 24,500 1,380 Climbing FlightAware ADS-B
09:27PM 31.5660 -96.5330 161° South 451 519 25,100 1,500 Climbing FlightAware ADS-B
09:27PM 31.5530 -96.5274 160° South 470 541 25,300 1,320 Climbing FlightAware ADS-B
09:27PM 31.4930 -96.5030 161° South 474 545 25,900 960 Climbing FlightAware ADS-B
09:28PM 31.4290 -96.4800 163° South 472 543 26,300 720 Climbing FlightAware ADS-B
09:28PM 31.4247 -96.4783 161° South 483 556 26,300 900 Level FlightAware ADS-B
09:28PM 31.3601 -96.4546 163° South 488 562 26,800 1,020 Climbing FlightAware ADS-B
09:28PM 31.3520 -96.4510 159° South 489 563 26,900 1,140 Climbing FlightAware ADS-B
09:29PM 31.2934 -96.4299 163° South 492 566 27,400 1,140 Climbing FlightAware ADS-B
09:29PM 31.2730 -96.4220 162° South 496 571 27,600 1,140 Climbing FlightAware ADS-B
09:29PM 31.2255 -96.4045 163° South 495 570 28,000 1,020 Climbing FlightAware ADS-B
09:29PM 31.2100 -96.3978 160° South 499 574 28,100 660 Climbing FlightAware ADS-B
09:29PM 31.2080 -96.3970 161° South 498 573 28,100 1,500 Level FlightAware ADS-B
09:30PM 31.1914 -96.3872 153° Southeast 504 580 28,300 900 Climbing FlightAware ADS-B
09:30PM 31.1809 -96.3799 149° Southeast 506 582 28,300 540 Level FlightAware ADS-B
09:30PM 31.1710 -96.3720 146° Southeast 527 606 28,400 1,260 Climbing FlightAware ADS-B
09:30PM 31.1460 -96.3470 139° Southeast 516 594 28,700 960 Climbing FlightAware ADS-B
09:30PM 31.1400 -96.3400 135° Southeast 496 571 28,700 660 Level FlightAware ADS-B
09:30PM 31.1311 -96.3272 129° Southeast 522 601 28,800 1,020 Climbing FlightAware ADS-B
09:31PM 31.0879 -96.2578 126° Southeast 528 608 29,300 840 Climbing FlightAware ADS-B
09:31PM 31.0449 -96.1873 125° Southeast 532 612 29,700 840 Climbing FlightAware ADS-B
09:32PM 31.0020 -96.1167 125° Southeast 534 615 30,200 1,020 Climbing FlightAware ADS-B
09:32PM 30.9940 -96.1030 124° Southeast 542 624 30,300 1,380 Climbing FlightAware ADS-B
09:32PM 30.9591 -96.0468 126° Southeast 530 610 30,900 1,500 Climbing FlightAware ADS-B
09:32PM 30.9430 -96.0200 125° Southeast 529 609 31,200 1,380 Climbing FlightAware ADS-B
09:33PM 30.9158 -95.9766 126° Southeast 528 608 31,600 1,140 Climbing FlightAware ADS-B
09:33PM 30.8910 -95.9370 126° Southeast 520 598 31,900 960 Climbing FlightAware ADS-B
09:33PM 30.8725 -95.9068 126° Southeast 528 608 32,100 1,020 Climbing FlightAware ADS-B
09:33PM 30.8486 -95.8706 128° Southeast 527 606 32,400 1,020 Climbing FlightAware ADS-B
09:33PM 30.8470 -95.8690 139° Southeast 516 594 32,400 600 Level FlightAware ADS-B
09:34PM 30.8175 -95.8278 130° Southeast 526 605 32,600 720 Climbing FlightAware ADS-B
09:34PM 30.7990 -95.8050 133° Southeast 529 609 32,800 840 Climbing FlightAware ADS-B
09:34PM 30.7731 -95.7736 134° Southeast 524 603 33,000 1,020 Climbing FlightAware ADS-B
09:35PM 30.7370 -95.7330 136° Southeast 533 613 33,400 1,200 Climbing FlightAware ADS-B
09:35PM 30.7207 -95.7152 137° Southeast 522 601 33,600 960 Climbing FlightAware ADS-B
09:35PM 30.6850 -95.6760 137° Southeast 510 587 33,900 960 Climbing FlightAware ADS-B
09:35PM 30.6678 -95.6566 136° Southeast 519 597 34,100 960 Climbing FlightAware ADS-B
09:36PM 30.6330 -95.6180 136° Southeast 545 627 34,400 780 Climbing FlightAware ADS-B
09:36PM 30.6156 -95.5988 136° Southeast 518 596 34,500 660 Climbing FlightAware ADS-B
09:36PM 30.5710 -95.5490 136° Southeast 498 573 34,800 540 Climbing FlightAware ADS-B
09:36PM 30.5621 -95.5394 137° Southeast 520 598 34,800 300 Level FlightAware ADS-B
09:37PM 30.5080 -95.4800 137° Southeast 519 597 35,000 300 Climbing FlightAware ADS-B
09:37PM 30.4956 -95.4657 135° Southeast 520 598 35,000  Level FlightAware ADS-B
09:37PM 30.4450 -95.4100 136° Southeast 521 600 35,000  Level FlightAware ADS-B
09:37PM 30.4427 -95.4071 133° Southeast 518 596 35,000  Level FlightAware ADS-B
09:38PM 30.3940 -95.3530 136° Southeast 555 639 35,000  Level FlightAware ADS-B
09:38PM 30.3900 -95.3486 137° Southeast 518 596 35,000  Level FlightAware ADS-B
09:38PM 30.3420 -95.2960 137° Southeast 530 610 35,000  Level FlightAware ADS-B
09:38PM 30.3371 -95.2902 134° Southeast 518 596 35,000  Level FlightAware ADS-B
09:39PM 30.2844 -95.2321 136° Southeast 518 596 35,000  Level FlightAware ADS-B
09:39PM 30.2790 -95.2260 136° Southeast 531 611 35,000  Level FlightAware ADS-B
09:39PM 30.2269 -95.1688 137° Southeast 519 597 35,000  Level FlightAware ADS-B
09:40PM 30.2180 -95.1590 136° Southeast 499 574 35,000  Level FlightAware ADS-B
09:40PM 30.1728 -95.1094 137° Southeast 519 597 35,000  Level FlightAware ADS-B
09:40PM 30.1650 -95.1000 134° Southeast 508 585 35,000  Level FlightAware ADS-B
09:40PM 30.1201 -95.0517 137° Southeast 521 600 35,000  Level FlightAware ADS-B
09:41PM 30.1010 -95.0310 137° Southeast 545 627 35,000  Level FlightAware ADS-B
09:41PM 30.0672 -94.9938 136° Southeast 521 600 35,000  Level FlightAware ADS-B
09:41PM 30.0390 -94.9630 137° Southeast 497 572 35,000  Level FlightAware ADS-B
09:41PM 30.0138 -94.9354 137° Southeast 522 601 35,000  Level FlightAware ADS-B
09:42PM 29.9860 -94.9050 137° Southeast 545 627 35,000  Level FlightAware ADS-B
09:42PM 29.9605 -94.8772 137° Southeast 523 602 35,000  Level FlightAware ADS-B
09:42PM 29.9240 -94.8370 136° Southeast 526 605 35,000  Level FlightAware ADS-B
09:43PM 29.9075 -94.8194 137° Southeast 523 602 35,000  Level FlightAware ADS-B
09:43PM 29.8700 -94.7790 137° Southeast 520 598 35,000  Level FlightAware ADS-B
09:43PM 29.8543 -94.7617 136° Southeast 523 602 35,000  Level FlightAware ADS-B
09:43PM 29.8170 -94.7210 137° Southeast 524 603 35,000  Level FlightAware ADS-B
09:44PM 29.8011 -94.7038 137° Southeast 524 603 35,000  Level FlightAware ADS-B
09:44PM 29.7540 -94.6530 137° Southeast 536 617 35,000  Level FlightAware ADS-B
09:44PM 29.7474 -94.6457 136° Southeast 524 603 35,000  Level FlightAware ADS-B
09:44PM 29.7000 -94.5950 137° Southeast 538 619 35,000  Level FlightAware ADS-B
09:45PM 29.6939 -94.5877 134° Southeast 525 604 35,000  Level FlightAware ADS-B
09:45PM 29.6403 -94.5297 137° Southeast 526 605 35,000  Level FlightAware ADS-B
09:45PM 29.6370 -94.5260 136° Southeast 534 615 35,000  Level FlightAware ADS-B
09:46PM 29.5869 -94.4719 137° Southeast 526 605 35,000  Level FlightAware ADS-B
09:46PM 29.5850 -94.4700 139° Southeast 489 563 35,000  Level FlightAware ADS-B
09:46PM 29.5326 -94.4135 137° Southeast 526 605 35,000  Level FlightAware ADS-B
09:46PM 29.5200 -94.4000 137° Southeast 513 590 35,000  Level FlightAware ADS-B
09:47PM 29.4778 -94.3545 137° Southeast 526 605 35,000  Level FlightAware ADS-B
09:47PM 29.4570 -94.3320 137° Southeast 526 605 35,000  Level FlightAware ADS-B
09:47PM 29.4240 -94.2968 137° Southeast 525 604 35,000  Level FlightAware ADS-B
09:47PM 29.3930 -94.2630 136° Southeast 526 605 35,000  Level FlightAware ADS-B
09:48PM 29.3697 -94.2383 137° Southeast 525 604 35,000  Level FlightAware ADS-B
09:48PM 29.3420 -94.2090 137° Southeast 566 651 35,000  Level FlightAware ADS-B
09:48PM 29.3161 -94.1808 136° Southeast 526 605 35,000  Level FlightAware ADS-B
09:48PM 29.2860 -94.1490 137° Southeast 535 616 35,000  Level FlightAware ADS-B
09:49PM 29.2630 -94.1237 136° Southeast 526 605 35,000  Level FlightAware ADS-B
09:49PM 29.2320 -94.0910 137° Southeast 562 647 35,000  Level FlightAware ADS-B
09:49PM 29.2073 -94.0640 136° Southeast 525 604 35,000  Level FlightAware ADS-B
09:49PM 29.1730 -94.0270 137° Southeast 431 496 35,000  Level FlightAware ADS-B
09:50PM 29.1540 -94.0072 138° Southeast 525 604 35,000  Level FlightAware ADS-B
09:50PM 29.0920 -93.9410 137° Southeast 527 606 35,000  Level FlightAware ADS-B
09:51PM 29.0606 -93.9022 137° Southeast 524 603 35,000 -120 Level Houston Center
09:52PM 28.9344 -93.7747 138° Southeast 526 605 34,900  Descending Houston Center
09:53PM 28.8233 -93.6556 137° Southeast 525 604 35,000  Climbing Houston Center
09:54PM 28.7175 -93.5425 137° Southeast 522 601 35,000  Level Houston Center
09:55PM 28.6167 -93.4367 137° Southeast 522 601 35,000  Level Houston Center
09:56PM 28.5053 -93.3178 137° Southeast 522 601 35,000 -60 Level Houston Center
09:57PM 28.4047 -93.2125 137° Southeast 521 600 34,900  Descending Houston Center
09:58PM 28.2983 -93.1033 138° Southeast 518 596 35,000  Climbing Houston Center
09:59PM 28.1922 -92.9925 137° Southeast 519 597 35,000  Level Houston Center
10:00PM 28.0872 -92.8814 137° Southeast 517 595 35,000  Level Houston Center
10:01PM 27.9583 -92.7486 138° Southeast 520 598 35,000  Level Houston Center
10:02PM 27.8525 -92.6394 138° Southeast 518 596 35,000  Level Houston Center
10:03PM 27.7456 -92.5317 138° Southeast 515 593 35,000  Level Houston Center
10:04PM 27.6392 -92.4228 138° Southeast 516 594 35,000  Level Houston Center
10:05PM 27.5333 -92.3133 137° Southeast 516 594 35,000  Level Houston Center
10:06PM 27.4269 -92.2050 138° Southeast 517 595 35,000 -60 Level Houston Center
10:07PM 27.3197 -92.0969 138° Southeast 517 595 34,900  Descending Houston Center
10:08PM 27.2142 -91.9906 138° Southeast 514 592 35,000  Climbing Houston Center
10:09PM 27.1022 -91.8889 141° Southeast 516 594 35,000  Level Houston Center
10:11PM 26.9433 -91.7601 144° Southeast  Level FlightAware Approximate
10:18PM 26.1824 -91.1512 145° Southeast  Level FlightAware Approximate
10:19PM 26.0732 -91.0654 145° Southeast  Level FlightAware Approximate
10:20PM 25.9640 -90.9797 145° Southeast  Level FlightAware Approximate
10:21PM 25.8547 -90.8941 145° Southeast  Level FlightAware Approximate
10:22PM 25.7453 -90.8088 145° Southeast  Level FlightAware Approximate
10:23PM 25.6359 -90.7235 145° Southeast  Level FlightAware Approximate
10:24PM 25.5265 -90.6385 145° Southeast  Level FlightAware Approximate
10:25PM 25.4170 -90.5536 145° Southeast  Level FlightAware Approximate
10:26PM 25.3074 -90.4688 145° Southeast  Level FlightAware Approximate
10:27PM 25.1978 -90.3842 145° Southeast  Level FlightAware Approximate
10:28PM 25.0882 -90.2998 145° Southeast  Level FlightAware Approximate
10:29PM 24.9785 -90.2155 145° Southeast  Level FlightAware Approximate
10:30PM 24.8687 -90.1314 145° Southeast  Level FlightAware Approximate
10:31PM 24.7589 -90.0474 145° Southeast  Level FlightAware Approximate
10:32PM 24.6491 -89.9635 145° Southeast  Level FlightAware Approximate
10:33PM 24.5392 -89.8798 145° Southeast  Level FlightAware Approximate
10:34PM 24.4364 -89.7864 138° Southeast  Level FlightAware Approximate
10:35PM 24.3376 -89.6876 138° Southeast  Level FlightAware Approximate
10:36PM 24.2403 -89.5870 136° Southeast  Level FlightAware Approximate
10:37PM 24.1439 -89.4855 136° Southeast  Level FlightAware Approximate
10:38PM 24.0474 -89.3842 136° Southeast  Level FlightAware Approximate
10:39PM 23.9508 -89.2830 136° Southeast  Level FlightAware Approximate
10:40PM 23.8542 -89.1820 136° Southeast  Level FlightAware Approximate
10:41PM 23.7576 -89.0811 136° Southeast  Level FlightAware Approximate
10:42PM 23.6608 -88.9804 136° Southeast  Level FlightAware Approximate
10:43PM 23.5640 -88.8798 136° Southeast  Level FlightAware Approximate
10:44PM 23.4671 -88.7794 136° Southeast  Level FlightAware Approximate
10:45PM 23.3702 -88.6791 136° Southeast  Level FlightAware Approximate
10:46PM 23.2732 -88.5789 137° Southeast  Level FlightAware Approximate
10:47PM 23.1761 -88.4789 137° Southeast  Level FlightAware Approximate
10:48PM 23.0790 -88.3791 137° Southeast  Level FlightAware Approximate
10:49PM 22.9818 -88.2794 137° Southeast  Level FlightAware Approximate
10:50PM 22.8845 -88.1798 137° Southeast  Level FlightAware Approximate
10:51PM 22.7872 -88.0804 137° Southeast  Level FlightAware Approximate
10:52PM 22.6898 -87.9811 137° Southeast  Level FlightAware Approximate
10:53PM 22.5924 -87.8820 137° Southeast  Level FlightAware Approximate
10:54PM 22.4949 -87.7830 137° Southeast  Level FlightAware Approximate
10:55PM 22.3973 -87.6841 137° Southeast  Level FlightAware Approximate
10:56PM 22.2997 -87.5854 137° Southeast  Level FlightAware Approximate
10:57PM 22.2020 -87.4868 137° Southeast  Level FlightAware Approximate
10:58PM 22.1043 -87.3884 137° Southeast  Level FlightAware Approximate
10:59PM 22.0065 -87.2901 137° Southeast  Level FlightAware Approximate
11:00PM 21.9086 -87.1919 137° Southeast  Level FlightAware Approximate
11:01PM 21.8107 -87.0938 137° Southeast  Level FlightAware Approximate
11:02PM 21.7128 -86.9959 137° Southeast  Level FlightAware Approximate
11:03PM 21.6148 -86.8980 137° Southeast  Level FlightAware Approximate
11:04PM 21.5170 -86.8001 137° Southeast  Level FlightAware Approximate
11:05PM 21.4192 -86.7022 137° Southeast  Level FlightAware Approximate
11:06PM 21.3213 -86.6045 137° Southeast  Level FlightAware Approximate
11:07PM 21.2233 -86.5069 137° Southeast  Level FlightAware Approximate
11:08PM 21.1253 -86.4095 137° Southeast  Level FlightAware Approximate
11:09PM 21.0272 -86.3121 137° Southeast  Level FlightAware Approximate
11:10PM 20.9291 -86.2149 137° Southeast  Level FlightAware Approximate
11:11PM 20.8309 -86.1179 137° Southeast  Level FlightAware Approximate
11:12PM 20.7327 -86.0209 137° Southeast  Level FlightAware Approximate
11:13PM 20.6344 -85.9241 137° Southeast  Level FlightAware Approximate
11:14PM 20.5360 -85.8274 137° Southeast  Level FlightAware Approximate
11:15PM 20.4376 -85.7309 137° Southeast  Level FlightAware Approximate
11:16PM 20.3392 -85.6344 137° Southeast  Level FlightAware Approximate
11:17PM 20.2407 -85.5381 137° Southeast  Level FlightAware Approximate
11:18PM 20.1421 -85.4419 137° Southeast  Level FlightAware Approximate
11:19PM 20.0436 -85.3457 137° Southeast  Level FlightAware Approximate
11:20PM 19.9450 -85.2496 138° Southeast  Level FlightAware Approximate
11:21PM 19.8463 -85.1537 138° Southeast  Level FlightAware Approximate
11:22PM 19.7477 -85.0579 138° Southeast  Level FlightAware Approximate
11:23PM 19.6489 -84.9622 138° Southeast  Level FlightAware Approximate
11:24PM 19.5501 -84.8666 138° Southeast  Level FlightAware Approximate
11:25PM 19.4513 -84.7711 138° Southeast  Level FlightAware Approximate
11:26PM 19.3524 -84.6758 138° Southeast  Level FlightAware Approximate
11:27PM 19.2535 -84.5806 138° Southeast  Level FlightAware Approximate
11:28PM 19.1545 -84.4855 138° Southeast  Level FlightAware Approximate
11:29PM 19.0555 -84.3904 138° Southeast  Level FlightAware Approximate
11:30PM 18.9564 -84.2956 138° Southeast  Level FlightAware Approximate
11:31PM 18.8572 -84.2008 138° Southeast  Level FlightAware Approximate
11:32PM 18.7581 -84.1061 138° Southeast  Level FlightAware Approximate
11:33PM 18.6585 -84.0119 138° Southeast  Level FlightAware Approximate
11:34PM 18.5588 -83.9181 138° Southeast  Level FlightAware Approximate
11:35PM 18.4589 -83.8244 138° Southeast  Level FlightAware Approximate
11:36PM 18.3591 -83.7307 138° Southeast  Level FlightAware Approximate
11:37PM 18.2591 -83.6372 138° Southeast  Level FlightAware Approximate
11:38PM 18.1592 -83.5438 138° Southeast  Level FlightAware Approximate
11:39PM 18.0592 -83.4505 138° Southeast  Level FlightAware Approximate
11:40PM 17.9591 -83.3573 138° Southeast  Level FlightAware Approximate
11:41PM 17.8590 -83.2642 138° Southeast  Level FlightAware Approximate
11:42PM 17.7589 -83.1712 139° Southeast  Level FlightAware Approximate
11:43PM 17.6587 -83.0784 139° Southeast  Level FlightAware Approximate
11:44PM 17.5584 -82.9856 139° Southeast  Level FlightAware Approximate
11:45PM 17.4584 -82.8932 139° Southeast  Level FlightAware Approximate
11:46PM 17.3583 -82.8009 139° Southeast  Level FlightAware Approximate
11:47PM 17.2582 -82.7086 139° Southeast  Level FlightAware Approximate
11:48PM 17.1580 -82.6165 139° Southeast  Level FlightAware Approximate
11:49PM 17.0578 -82.5245 139° Southeast  Level FlightAware Approximate
11:50PM 16.9575 -82.4326 139° Southeast  Level FlightAware Approximate
11:51PM 16.8573 -82.3408 139° Southeast  Level FlightAware Approximate
11:52PM 16.7569 -82.2491 139° Southeast  Level FlightAware Approximate
11:53PM 16.6565 -82.1574 139° Southeast  Level FlightAware Approximate
11:54PM 16.5560 -82.0660 139° Southeast  Level FlightAware Approximate
11:55PM 16.4555 -81.9747 139° Southeast  Level FlightAware Approximate
11:56PM 16.3549 -81.8835 139° Southeast  Level FlightAware Approximate
11:57PM 16.2543 -81.7923 139° Southeast  Level FlightAware Approximate
11:58PM 16.1536 -81.7013 139° Southeast  Level FlightAware Approximate
11:59PM 16.0529 -81.6103 139° Southeast  Level FlightAware Approximate
12:00AM 15.9522 -81.5195 139° Southeast  Level FlightAware Approximate
12:01AM 15.8514 -81.4287 139° Southeast  Level FlightAware Approximate
12:02AM 15.7506 -81.3380 139° Southeast  Level FlightAware Approximate
12:03AM 15.6498 -81.2474 139° Southeast  Level FlightAware Approximate
12:04AM 15.5489 -81.1569 139° Southeast  Level FlightAware Approximate
12:05AM 15.4480 -81.0665 139° Southeast  Level FlightAware Approximate
12:06AM 15.3470 -80.9762 139° Southeast  Level FlightAware Approximate
12:07AM 15.2460 -80.8860 139° Southeast  Level FlightAware Approximate
12:08AM 15.1450 -80.7958 139° Southeast  Level FlightAware Approximate
12:09AM 15.0439 -80.7058 139° Southeast  Level FlightAware Approximate
12:10AM 14.9430 -80.6156 139° Southeast  Level FlightAware Approximate
12:11AM 14.8421 -80.5253 139° Southeast  Level FlightAware Approximate
12:12AM 14.7413 -80.4351 139° Southeast  Level FlightAware Approximate
12:13AM 14.6404 -80.3450 139° Southeast  Level FlightAware Approximate
12:14AM 14.5393 -80.2549 139° Southeast  Level FlightAware Approximate
12:15AM 14.4381 -80.1648 139° Southeast  Level FlightAware Approximate
12:16AM 14.3369 -80.0748 139° Southeast  Level FlightAware Approximate
12:17AM 14.2357 -79.9848 139° Southeast  Level FlightAware Approximate
12:18AM 14.1345 -79.8950 139° Southeast  Level FlightAware Approximate
12:19AM 14.0332 -79.8052 139° Southeast  Level FlightAware Approximate
12:20AM 13.9319 -79.7155 139° Southeast  Level FlightAware Approximate
12:21AM 13.8305 -79.6259 139° Southeast  Level FlightAware Approximate
12:22AM 13.7291 -79.5364 139° Southeast  Level FlightAware Approximate
12:23AM 13.6277 -79.4469 139° Southeast  Level FlightAware Approximate
12:24AM 13.5263 -79.3576 139° Southeast  Level FlightAware Approximate
12:25AM 13.4248 -79.2682 139° Southeast  Level FlightAware Approximate
12:26AM 13.3233 -79.1790 139° Southeast  Level FlightAware Approximate
12:27AM 13.2217 -79.0899 139° Southeast  Level FlightAware Approximate
12:28AM 13.1202 -79.0008 139° Southeast  Level FlightAware Approximate
12:29AM 13.0186 -78.9118 140° Southeast  Level FlightAware Approximate
12:30AM 12.9169 -78.8229 140° Southeast  Level FlightAware Approximate
12:31AM 12.8153 -78.7340 140° Southeast  Level FlightAware Approximate
12:31AM 11.3070 -77.6860 140° Southeast 486 559 35,000  Level FlightAware
12:31AM 11.2380 -77.6310 142° Southeast 486 559 35,000  Level FlightAware
12:32AM 11.1780 -77.5830 142° Southeast 486 559 35,000  Level FlightAware
12:33AM 11.0730 -77.5050 144° Southeast 490 564 35,000  Level FlightAware
12:33AM 10.9890 -77.4400 143° Southeast 490 564 35,000  Level FlightAware
12:34AM 10.9190 -77.3790 139° Southeast 486 559 35,000  Level FlightAware
12:35AM 10.8430 -77.3090 138° Southeast 486 559 35,000  Level FlightAware
12:36AM 10.7760 -77.2460 137° Southeast 488 562 35,000  Level FlightAware
12:36AM 10.7270 -77.1990 137° Southeast 488 562 35,000  Level FlightAware
12:37AM 10.6580 -77.1310 136° Southeast 488 562 35,000  Level FlightAware
12:38AM 10.5640 -77.0480 139° Southeast 486 559 35,000  Level FlightAware
12:38AM 10.5060 -76.9940 138° Southeast 485 558 35,000  Level FlightAware
12:39AM 10.4200 -76.9150 138° Southeast 484 557 35,000  Level FlightAware
12:40AM 10.3550 -76.8550 138° Southeast 486 559 35,000  Level FlightAware
12:40AM 10.2800 -76.7850 137° Southeast 485 558 35,000  Level FlightAware
12:41AM 10.2120 -76.7210 137° Southeast 485 558 35,000  Level FlightAware
12:42AM 10.1350 -76.6500 138° Southeast 484 557 35,000  Level FlightAware
12:43AM 10.0680 -76.5880 138° Southeast 483 556 35,000  Level FlightAware
12:44AM 9.9230 -76.4540 138° Southeast 486 559 35,000  Level FlightAware
12:45AM 9.8020 -76.3410 137° Southeast 486 559 35,000  Level FlightAware
12:47AM 9.6350 -76.1860 138° Southeast 483 556 35,000  Level FlightAware
12:48AM 9.5640 -76.1220 138° Southeast 482 555 35,000  Level FlightAware
12:48AM 9.4980 -76.0570 136° Southeast 482 555 35,000  Level FlightAware
12:49AM 9.4430 -76.0040 136° Southeast 482 555 35,000  Level FlightAware
12:50AM 9.3880 -75.9500 136° Southeast 482 555 35,000  Level FlightAware
12:50AM 9.3340 -75.8970 136° Southeast 482 555 35,000  Level FlightAware
12:51AM 9.2790 -75.8430 136° Southeast 482 555 35,000  Level FlightAware
12:52AM 9.2110 -75.7770 136° Southeast 482 555 35,000  Level FlightAware
12:53AM 9.1570 -75.7230 135° Southeast 482 555 35,000  Level FlightAware
12:53AM 9.1020 -75.6700 136° Southeast 482 555 35,000  Level FlightAware
12:54AM 9.0480 -75.6170 136° Southeast 482 555 35,000  Level FlightAware
12:55AM 8.9930 -75.5630 136° Southeast 482 555 35,000  Level FlightAware
12:55AM 8.9250 -75.4970 136° Southeast 482 555 35,000  Level FlightAware
12:56AM 8.8700 -75.4430 136° Southeast 482 555 35,000  Level FlightAware
12:57AM 8.8160 -75.3900 136° Southeast 482 555 35,000  Level FlightAware
12:57AM 8.7610 -75.3370 136° Southeast 482 555 35,000  Level FlightAware
01:00AM 8.5470 -75.1475 139° Southeast  Level FlightAware Approximate
01:01AM 8.4467 -75.0587 139° Southeast  Level FlightAware Approximate
01:02AM 8.3463 -74.9700 139° Southeast  Level FlightAware Approximate
01:03AM 8.2459 -74.8813 139° Southeast  Level FlightAware Approximate
01:04AM 8.1456 -74.7926 139° Southeast  Level FlightAware Approximate
01:05AM 8.0451 -74.7040 139° Southeast  Level FlightAware Approximate
01:06AM 7.9447 -74.6155 139° Southeast  Level FlightAware Approximate
01:07AM 7.8443 -74.5270 139° Southeast  Level FlightAware Approximate
01:08AM 7.7438 -74.4385 139° Southeast  Level FlightAware Approximate
01:09AM 7.6433 -74.3501 139° Southeast  Level FlightAware Approximate
01:10AM 7.5428 -74.2617 139° Southeast  Level FlightAware Approximate
01:11AM 7.4423 -74.1734 139° Southeast  Level FlightAware Approximate
01:12AM 7.3417 -74.0851 139° Southeast  Level FlightAware Approximate
01:13AM 7.2412 -73.9968 139° Southeast  Level FlightAware Approximate
01:14AM 7.1406 -73.9086 139° Southeast  Level FlightAware Approximate
01:15AM 7.0400 -73.8204 139° Southeast  Level FlightAware Approximate
01:16AM 6.9268 -73.7511 152° Southeast  Level FlightAware Approximate
01:17AM 6.8095 -73.6873 152° Southeast  Level FlightAware Approximate
01:18AM 6.6922 -73.6235 152° Southeast  Level FlightAware Approximate
01:19AM 6.5749 -73.5597 152° Southeast  Level FlightAware Approximate
01:20AM 6.4576 -73.4960 152° Southeast  Level FlightAware Approximate
01:21AM 6.3402 -73.4323 152° Southeast  Level FlightAware Approximate
01:22AM 6.2229 -73.3686 152° Southeast  Level FlightAware Approximate
01:23AM 6.1055 -73.3050 152° Southeast  Level FlightAware Approximate
01:24AM 5.9881 -73.2415 152° Southeast  Level FlightAware Approximate
01:25AM 5.8707 -73.1779 152° Southeast  Level FlightAware Approximate
01:26AM 5.7533 -73.1144 152° Southeast  Level FlightAware Approximate
01:27AM 5.6359 -73.0509 152° Southeast  Level FlightAware Approximate
01:28AM 5.5185 -72.9875 152° Southeast  Level FlightAware Approximate
01:29AM 5.4010 -72.9240 152° Southeast  Level FlightAware Approximate
01:30AM 5.2836 -72.8606 152° Southeast  Level FlightAware Approximate
01:31AM 5.1662 -72.7972 152° Southeast  Level FlightAware Approximate
01:32AM 5.0487 -72.7339 152° Southeast  Level FlightAware Approximate
01:33AM 4.9313 -72.6705 152° Southeast  Level FlightAware Approximate
01:34AM 4.8138 -72.6072 152° Southeast  Level FlightAware Approximate
01:35AM 4.6964 -72.5439 152° Southeast  Level FlightAware Approximate
01:36AM 4.5789 -72.4807 152° Southeast  Level FlightAware Approximate
01:37AM 4.4614 -72.4174 152° Southeast  Level FlightAware Approximate
01:38AM 4.3439 -72.3542 152° Southeast  Level FlightAware Approximate
01:39AM 4.2265 -72.2910 152° Southeast  Level FlightAware Approximate
01:40AM 4.1090 -72.2278 152° Southeast  Level FlightAware Approximate
01:41AM 3.9915 -72.1646 152° Southeast  Level FlightAware Approximate
01:42AM 3.8783 -72.0945 145° Southeast  Level FlightAware Approximate
01:43AM 3.7693 -72.0175 145° Southeast  Level FlightAware Approximate
01:44AM 3.6602 -71.9406 145° Southeast  Level FlightAware Approximate
01:45AM 3.5512 -71.8637 145° Southeast  Level FlightAware Approximate
01:46AM 3.4422 -71.7869 145° Southeast  Level FlightAware Approximate
01:47AM 3.3331 -71.7100 145° Southeast  Level FlightAware Approximate
01:48AM 3.2243 -71.6333 145° Southeast  Level FlightAware Approximate
01:49AM 3.1154 -71.5566 145° Southeast  Level FlightAware Approximate
01:50AM 3.0066 -71.4800 145° Southeast  Level FlightAware Approximate
01:51AM 2.8977 -71.4033 145° Southeast  Level FlightAware Approximate
01:52AM 2.7888 -71.3267 145° Southeast  Level FlightAware Approximate
01:53AM 2.6799 -71.2501 145° Southeast  Level FlightAware Approximate
01:54AM 2.5711 -71.1734 145° Southeast  Level FlightAware Approximate
01:55AM 2.4622 -71.0968 145° Southeast  Level FlightAware Approximate
01:56AM 2.3533 -71.0203 145° Southeast  Level FlightAware Approximate
01:57AM 2.2444 -70.9437 145° Southeast  Level FlightAware Approximate
01:58AM 2.1355 -70.8671 145° Southeast  Level FlightAware Approximate
01:59AM 2.0266 -70.7906 145° Southeast  Level FlightAware Approximate
02:00AM 1.9177 -70.7141 145° Southeast  Level FlightAware Approximate
02:01AM 1.8088 -70.6375 145° Southeast  Level FlightAware Approximate
02:02AM 1.6999 -70.5610 145° Southeast  Level FlightAware Approximate
02:03AM 1.5909 -70.4845 145° Southeast  Level FlightAware Approximate
02:04AM 1.4820 -70.4080 145° Southeast  Level FlightAware Approximate
02:05AM 1.3731 -70.3315 145° Southeast  Level FlightAware Approximate
02:06AM 1.2642 -70.2550 145° Southeast  Level FlightAware Approximate
02:07AM 1.1621 -70.1699 138° Southeast  Level FlightAware Approximate
02:08AM 1.0626 -70.0814 138° Southeast  Level FlightAware Approximate
02:09AM 0.9632 -69.9929 138° Southeast  Level FlightAware Approximate
02:10AM 0.8640 -69.9045 138° Southeast  Level FlightAware Approximate
02:11AM 0.7647 -69.8162 138° Southeast  Level FlightAware Approximate
02:12AM 0.6655 -69.7279 138° Southeast  Level FlightAware Approximate
02:13AM 0.5662 -69.6396 138° Southeast  Level FlightAware Approximate
02:14AM 0.4670 -69.5513 138° Southeast  Level FlightAware Approximate
02:15AM 0.3677 -69.4630 138° Southeast  Level FlightAware Approximate
02:16AM 0.2685 -69.3747 138° Southeast  Level FlightAware Approximate
02:17AM 0.1692 -69.2863 138° Southeast  Level FlightAware Approximate
02:18AM 0.0700 -69.1980 138° Southeast  Level FlightAware Approximate
02:19AM -0.0293 -69.1097 138° Southeast  Level FlightAware Approximate
02:20AM -0.1285 -69.0214 138° Southeast  Level FlightAware Approximate
02:21AM -0.2278 -68.9331 138° Southeast  Level FlightAware Approximate
02:22AM -0.3270 -68.8448 138° Southeast  Level FlightAware Approximate
02:23AM -0.4263 -68.7565 138° Southeast  Level FlightAware Approximate
02:24AM -0.5255 -68.6682 138° Southeast  Level FlightAware Approximate
02:25AM -0.6248 -68.5799 138° Southeast  Level FlightAware Approximate
02:26AM -0.7240 -68.4915 138° Southeast  Level FlightAware Approximate
02:27AM -0.8233 -68.4032 138° Southeast  Level FlightAware Approximate
02:28AM -0.9225 -68.3149 138° Southeast  Level FlightAware Approximate
02:29AM -1.0218 -68.2266 138° Southeast  Level FlightAware Approximate
02:30AM -1.1210 -68.1382 138° Southeast  Level FlightAware Approximate
02:31AM -1.2203 -68.0499 138° Southeast  Level FlightAware Approximate
02:32AM -1.3195 -67.9615 138° Southeast  Level FlightAware Approximate
02:33AM -1.4187 -67.8732 138° Southeast  Level FlightAware Approximate
02:34AM -1.5180 -67.7848 138° Southeast  Level FlightAware Approximate
02:35AM -1.6172 -67.6964 138° Southeast  Level FlightAware Approximate
02:36AM -1.7164 -67.6081 138° Southeast  Level FlightAware Approximate
02:37AM -1.8156 -67.5197 138° Southeast  Level FlightAware Approximate
02:38AM -1.9148 -67.4313 138° Southeast  Level FlightAware Approximate
02:39AM -2.0140 -67.3429 138° Southeast  Level FlightAware Approximate
02:40AM -2.1132 -67.2544 138° Southeast  Level FlightAware Approximate
02:41AM -2.2124 -67.1660 138° Southeast  Level FlightAware Approximate
02:42AM -2.3116 -67.0776 138° Southeast  Level FlightAware Approximate
02:43AM -2.4108 -66.9891 138° Southeast  Level FlightAware Approximate
02:44AM -2.5100 -66.9007 138° Southeast  Level FlightAware Approximate
02:45AM -2.6092 -66.8122 138° Southeast  Level FlightAware Approximate
02:46AM -2.7083 -66.7237 138° Southeast  Level FlightAware Approximate
02:47AM -2.8075 -66.6352 138° Southeast  Level FlightAware Approximate
02:48AM -2.9067 -66.5466 138° Southeast  Level FlightAware Approximate
02:49AM -3.0058 -66.4581 138° Southeast  Level FlightAware Approximate
02:50AM -3.1050 -66.3695 138° Southeast  Level FlightAware Approximate
02:51AM -3.2041 -66.2810 138° Southeast  Level FlightAware Approximate
02:52AM -3.3032 -66.1924 138° Southeast  Level FlightAware Approximate
02:53AM -3.4023 -66.1038 138° Southeast  Level FlightAware Approximate
02:54AM -3.5015 -66.0151 138° Southeast  Level FlightAware Approximate
02:55AM -3.6006 -65.9265 138° Southeast  Level FlightAware Approximate
02:56AM -3.6997 -65.8378 138° Southeast  Level FlightAware Approximate
02:57AM -3.7987 -65.7491 138° Southeast  Level FlightAware Approximate
02:58AM -3.8978 -65.6604 138° Southeast  Level FlightAware Approximate
02:59AM -3.9969 -65.5717 138° Southeast  Level FlightAware Approximate
03:00AM -4.0960 -65.4830 138° Southeast  Level FlightAware Approximate
03:01AM -4.1950 -65.3942 138° Southeast  Level FlightAware Approximate
03:02AM -4.2940 -65.3054 138° Southeast  Level FlightAware Approximate
03:03AM -4.3931 -65.2166 138° Southeast  Level FlightAware Approximate
03:04AM -4.4921 -65.1277 138° Southeast  Level FlightAware Approximate
03:05AM -4.5911 -65.0389 138° Southeast  Level FlightAware Approximate
03:06AM -4.6901 -64.9500 138° Southeast  Level FlightAware Approximate
03:07AM -4.7891 -64.8611 138° Southeast  Level FlightAware Approximate
03:08AM -4.8881 -64.7721 138° Southeast  Level FlightAware Approximate
03:09AM -4.9870 -64.6832 138° Southeast  Level FlightAware Approximate
03:10AM -5.0860 -64.5942 138° Southeast  Level FlightAware Approximate
03:11AM -5.1849 -64.5052 138° Southeast  Level FlightAware Approximate
03:12AM -5.2842 -64.4158 138° Southeast  Level FlightAware Approximate
03:13AM -5.3835 -64.3264 138° Southeast  Level FlightAware Approximate
03:14AM -5.4827 -64.2370 138° Southeast  Level FlightAware Approximate
03:15AM -5.5819 -64.1476 138° Southeast  Level FlightAware Approximate
03:16AM -5.6812 -64.0581 138° Southeast  Level FlightAware Approximate
03:17AM -5.7804 -63.9686 138° Southeast  Level FlightAware Approximate
03:18AM -5.8796 -63.8790 138° Southeast  Level FlightAware Approximate
03:19AM -5.9788 -63.7894 138° Southeast  Level FlightAware Approximate
03:20AM -6.0779 -63.6998 138° Southeast  Level FlightAware Approximate
03:21AM -6.1771 -63.6102 138° Southeast  Level FlightAware Approximate
03:22AM -6.2762 -63.5205 138° Southeast  Level FlightAware Approximate
03:23AM -6.3753 -63.4308 138° Southeast  Level FlightAware Approximate
03:24AM -6.4745 -63.3410 138° Southeast  Level FlightAware Approximate
03:25AM -6.5735 -63.2513 138° Southeast  Level FlightAware Approximate
03:26AM -6.6726 -63.1614 138° Southeast  Level FlightAware Approximate
03:27AM -6.7717 -63.0716 138° Southeast  Level FlightAware Approximate
03:28AM -6.8707 -62.9817 138° Southeast  Level FlightAware Approximate
03:29AM -6.9697 -62.8918 138° Southeast  Level FlightAware Approximate
03:30AM -7.0688 -62.8018 138° Southeast  Level FlightAware Approximate
03:31AM -7.1677 -62.7118 138° Southeast  Level FlightAware Approximate
03:32AM -7.2667 -62.6218 138° Southeast  Level FlightAware Approximate
03:33AM -7.3657 -62.5317 138° Southeast  Level FlightAware Approximate
03:34AM -7.4646 -62.4416 138° Southeast  Level FlightAware Approximate
03:35AM -7.5635 -62.3514 138° Southeast  Level FlightAware Approximate
03:36AM -7.6624 -62.2612 138° Southeast  Level FlightAware Approximate
03:37AM -7.7613 -62.1710 138° Southeast  Level FlightAware Approximate
03:38AM -7.8602 -62.0807 138° Southeast  Level FlightAware Approximate
03:39AM -7.9591 -61.9903 138° Southeast  Level FlightAware Approximate
03:40AM -8.0579 -61.9000 138° Southeast  Level FlightAware Approximate
03:41AM -8.1567 -61.8095 138° Southeast  Level FlightAware Approximate
03:42AM -8.2555 -61.7191 138° Southeast  Level FlightAware Approximate
03:43AM -8.3542 -61.6286 138° Southeast  Level FlightAware Approximate
03:44AM -8.4528 -61.5382 138° Southeast  Level FlightAware Approximate
03:45AM -8.5514 -61.4477 138° Southeast  Level FlightAware Approximate
03:46AM -8.6499 -61.3573 138° Southeast  Level FlightAware Approximate
03:47AM -8.7484 -61.2667 138° Southeast  Level FlightAware Approximate
03:48AM -8.8469 -61.1761 138° Southeast  Level FlightAware Approximate
03:49AM -8.9453 -61.0855 138° Southeast  Level FlightAware Approximate
03:50AM -9.0438 -60.9948 138° Southeast  Level FlightAware Approximate
03:51AM -9.1422 -60.9041 138° Southeast  Level FlightAware Approximate
03:52AM -9.2406 -60.8133 138° Southeast  Level FlightAware Approximate
03:53AM -9.3390 -60.7225 138° Southeast  Level FlightAware Approximate
03:54AM -9.4373 -60.6316 138° Southeast  Level FlightAware Approximate
03:55AM -9.5357 -60.5407 138° Southeast  Level FlightAware Approximate
03:56AM -9.6340 -60.4497 138° Southeast  Level FlightAware Approximate
03:57AM -9.7322 -60.3587 138° Southeast  Level FlightAware Approximate
03:58AM -9.8305 -60.2676 138° Southeast  Level FlightAware Approximate
03:59AM -9.9287 -60.1764 138° Southeast  Level FlightAware Approximate
04:00AM -10.0269 -60.0852 138° Southeast  Level FlightAware Approximate
04:01AM -10.1251 -59.9939 138° Southeast  Level FlightAware Approximate
04:02AM -10.2233 -59.9026 138° Southeast  Level FlightAware Approximate
04:03AM -10.3214 -59.8113 138° Southeast  Level FlightAware Approximate
04:04AM -10.4195 -59.7198 137° Southeast  Level FlightAware Approximate
04:05AM -10.5176 -59.6284 137° Southeast  Level FlightAware Approximate
04:06AM -10.6157 -59.5368 137° Southeast  Level FlightAware Approximate
04:07AM -10.7139 -59.4451 137° Southeast  Level FlightAware Approximate
04:08AM -10.8120 -59.3532 137° Southeast  Level FlightAware Approximate
04:09AM -10.9102 -59.2614 137° Southeast  Level FlightAware Approximate
04:10AM -11.0083 -59.1694 137° Southeast  Level FlightAware Approximate
04:11AM -11.1064 -59.0774 137° Southeast  Level FlightAware Approximate
04:12AM -11.2044 -58.9853 137° Southeast  Level FlightAware Approximate
04:13AM -11.3025 -58.8932 137° Southeast  Level FlightAware Approximate
04:14AM -11.4005 -58.8010 137° Southeast  Level FlightAware Approximate
04:15AM -11.4985 -58.7088 137° Southeast  Level FlightAware Approximate
04:16AM -11.5964 -58.6164 137° Southeast  Level FlightAware Approximate
04:17AM -11.6943 -58.5241 137° Southeast  Level FlightAware Approximate
04:18AM -11.7922 -58.4316 137° Southeast  Level FlightAware Approximate
04:19AM -11.8901 -58.3391 137° Southeast  Level FlightAware Approximate
04:20AM -11.9879 -58.2465 137° Southeast  Level FlightAware Approximate
04:21AM -12.0857 -58.1539 137° Southeast  Level FlightAware Approximate
04:22AM -12.1835 -58.0611 137° Southeast  Level FlightAware Approximate
04:23AM -12.2812 -57.9683 137° Southeast  Level FlightAware Approximate
04:24AM -12.3789 -57.8755 137° Southeast  Level FlightAware Approximate
04:25AM -12.4766 -57.7826 137° Southeast  Level FlightAware Approximate
04:26AM -12.5743 -57.6895 137° Southeast  Level FlightAware Approximate
04:27AM -12.6719 -57.5965 137° Southeast  Level FlightAware Approximate
04:28AM -12.7695 -57.5033 137° Southeast  Level FlightAware Approximate
04:29AM -12.8670 -57.4101 137° Southeast  Level FlightAware Approximate
04:30AM -12.9645 -57.3168 137° Southeast  Level FlightAware Approximate
04:31AM -13.0620 -57.2235 137° Southeast  Level FlightAware Approximate
04:32AM -13.1594 -57.1301 137° Southeast  Level FlightAware Approximate
04:33AM -13.2567 -57.0367 137° Southeast  Level FlightAware Approximate
04:34AM -13.3539 -56.9433 137° Southeast  Level FlightAware Approximate
04:35AM -13.4511 -56.8498 137° Southeast  Level FlightAware Approximate
04:36AM -13.5482 -56.7563 137° Southeast  Level FlightAware Approximate
04:37AM -13.6453 -56.6626 137° Southeast  Level FlightAware Approximate
04:38AM -13.7424 -56.5689 137° Southeast  Level FlightAware Approximate
04:39AM -13.8394 -56.4751 137° Southeast  Level FlightAware Approximate
04:40AM -13.9364 -56.3812 137° Southeast  Level FlightAware Approximate
04:41AM -14.0334 -56.2873 137° Southeast  Level FlightAware Approximate
04:42AM -14.1303 -56.1933 137° Southeast  Level FlightAware Approximate
04:43AM -14.2272 -56.0992 137° Southeast  Level FlightAware Approximate
04:44AM -14.3240 -56.0050 137° Southeast  Level FlightAware Approximate
04:45AM -14.4208 -55.9107 137° Southeast  Level FlightAware Approximate
04:46AM -14.5176 -55.8163 137° Southeast  Level FlightAware Approximate
04:47AM -14.6144 -55.7219 137° Southeast  Level FlightAware Approximate
04:48AM -14.7111 -55.6274 137° Southeast  Level FlightAware Approximate
04:49AM -14.8077 -55.5328 137° Southeast  Level FlightAware Approximate
04:50AM -14.9043 -55.4381 137° Southeast  Level FlightAware Approximate
04:51AM -15.0009 -55.3433 137° Southeast  Level FlightAware Approximate
04:52AM -15.0975 -55.2485 137° Southeast  Level FlightAware Approximate
04:53AM -15.1940 -55.1535 136° Southeast  Level FlightAware Approximate
04:54AM -15.2904 -55.0585 136° Southeast  Level FlightAware Approximate
04:55AM -15.3869 -54.9634 136° Southeast  Level FlightAware Approximate
04:56AM -15.4833 -54.8682 136° Southeast  Level FlightAware Approximate
04:57AM -15.5796 -54.7729 136° Southeast  Level FlightAware Approximate
04:58AM -15.6759 -54.6775 136° Southeast  Level FlightAware Approximate
04:59AM -15.7722 -54.5820 136° Southeast  Level FlightAware Approximate
05:00AM -15.8684 -54.4864 136° Southeast  Level FlightAware Approximate
05:01AM -15.9646 -54.3908 136° Southeast  Level FlightAware Approximate
05:02AM -16.0607 -54.2950 136° Southeast  Level FlightAware Approximate
05:03AM -16.1568 -54.1992 136° Southeast  Level FlightAware Approximate
05:04AM -16.2528 -54.1032 136° Southeast  Level FlightAware Approximate
05:05AM -16.3489 -54.0072 136° Southeast  Level FlightAware Approximate
05:06AM -16.4448 -53.9111 136° Southeast  Level FlightAware Approximate
05:07AM -16.5407 -53.8149 136° Southeast  Level FlightAware Approximate
05:08AM -16.6366 -53.7186 136° Southeast  Level FlightAware Approximate
05:09AM -16.7324 -53.6222 136° Southeast  Level FlightAware Approximate
05:10AM -16.8282 -53.5257 136° Southeast  Level FlightAware Approximate
05:11AM -16.9240 -53.4291 136° Southeast  Level FlightAware Approximate
05:12AM -17.0197 -53.3324 136° Southeast  Level FlightAware Approximate
05:13AM -17.1153 -53.2355 136° Southeast  Level FlightAware Approximate
05:14AM -17.2109 -53.1386 136° Southeast  Level FlightAware Approximate
05:15AM -17.3065 -53.0416 136° Southeast  Level FlightAware Approximate
05:16AM -17.4020 -52.9445 136° Southeast  Level FlightAware Approximate
05:17AM -17.4974 -52.8474 136° Southeast  Level FlightAware Approximate
05:18AM -17.5929 -52.7500 136° Southeast  Level FlightAware Approximate
05:19AM -17.6882 -52.6526 136° Southeast  Level FlightAware Approximate
05:20AM -17.7836 -52.5551 136° Southeast  Level FlightAware Approximate
05:21AM -17.8788 -52.4575 136° Southeast  Level FlightAware Approximate
05:22AM -17.9741 -52.3598 136° Southeast  Level FlightAware Approximate
05:23AM -18.0692 -52.2620 136° Southeast  Level FlightAware Approximate
05:24AM -18.1644 -52.1640 136° Southeast  Level FlightAware Approximate
05:25AM -18.2594 -52.0660 136° Southeast  Level FlightAware Approximate
05:26AM -18.3545 -51.9678 136° Southeast  Level FlightAware Approximate
05:27AM -18.4494 -51.8696 136° Southeast  Level FlightAware Approximate
05:28AM -18.5444 -51.7712 136° Southeast  Level FlightAware Approximate
05:29AM -18.6392 -51.6727 135° Southeast  Level FlightAware Approximate
05:30AM -18.7341 -51.5742 135° Southeast  Level FlightAware Approximate
05:31AM -18.8288 -51.4755 135° Southeast  Level FlightAware Approximate
05:32AM -18.9236 -51.3767 135° Southeast  Level FlightAware Approximate
05:33AM -19.0182 -51.2778 135° Southeast  Level FlightAware Approximate
05:33AM -18.9990 -50.6720 135° Southeast 507 583 39,000  Level FlightAware
05:34AM -19.1128 -51.1787 135° Southeast  Level FlightAware Approximate
05:34AM -19.0850 -50.5780 134° Southeast 507 583 39,000  Level FlightAware
05:35AM -19.1590 -50.4970 134° Southeast 509 586 39,000  Level FlightAware
05:36AM -19.2310 -50.4190 134° Southeast 511 588 39,000  Level FlightAware
05:36AM -19.2960 -50.3470 134° Southeast 511 588 39,000  Level FlightAware
05:37AM -19.3720 -50.2630 134° Southeast 512 589 39,000  Level FlightAware
05:38AM -19.4370 -50.1910 134° Southeast 513 590 39,000  Level FlightAware
05:38AM -19.5010 -50.1210 134° Southeast 514 592 39,000  Level FlightAware
05:39AM -19.5770 -50.0380 134° Southeast 514 592 39,000  Level FlightAware
05:40AM -19.6530 -49.9540 134° Southeast 514 592 39,000  Level FlightAware
05:40AM -19.7200 -49.8820 135° Southeast 514 592 39,000  Level FlightAware
05:41AM -19.7920 -49.8030 134° Southeast 514 592 39,000  Level FlightAware
05:42AM -19.8570 -49.7310 134° Southeast 514 592 39,000  Level FlightAware
05:43AM -19.9350 -49.6460 134° Southeast 514 592 39,000  Level FlightAware
05:43AM -20.0000 -49.5750 134° Southeast 513 590 39,000  Level FlightAware
05:44AM -20.0640 -49.5040 134° Southeast 513 590 39,000  Level FlightAware
05:45AM -20.1390 -49.4220 134° Southeast 513 590 39,000  Level FlightAware
05:45AM -20.2040 -49.3500 134° Southeast 512 589 39,000  Level FlightAware
05:46AM -20.2780 -49.2680 134° Southeast 512 589 39,000  Level FlightAware
05:47AM -20.3450 -49.1940 134° Southeast 511 588 39,000  Level FlightAware
05:47AM -20.4100 -49.1230 134° Southeast 512 589 39,000  Level FlightAware
05:48AM -20.4780 -49.0480 134° Southeast 512 589 39,000  Level FlightAware
05:49AM -20.5510 -48.9670 134° Southeast 514 592 39,000  Level FlightAware
05:50AM -20.6260 -48.8830 134° Southeast 514 592 39,000  Level FlightAware
05:50AM -20.6910 -48.8110 134° Southeast 514 592 39,000  Level FlightAware
05:51AM -20.7580 -48.7360 134° Southeast 514 592 39,000  Level FlightAware
05:52AM -20.8230 -48.6630 134° Southeast 514 592 39,000  Level FlightAware
05:52AM -20.8960 -48.5810 134° Southeast 514 592 39,000  Level FlightAware
05:53AM -20.9610 -48.5080 134° Southeast 513 590 39,000  Level FlightAware
05:54AM -21.0370 -48.4220 133° Southeast 512 589 39,000  Level FlightAware
05:54AM -21.1000 -48.3510 134° Southeast 511 588 39,000  Level FlightAware
05:55AM -21.1650 -48.2780 134° Southeast 510 587 39,000  Level FlightAware
05:56AM -21.2380 -48.1950 133° Southeast 510 587 39,000  Level FlightAware
05:57AM -21.3110 -48.1130 134° Southeast 510 587 39,000  Level FlightAware
05:57AM -21.3750 -48.0400 133° Southeast 509 586 39,000  Level FlightAware
05:58AM -21.4400 -47.9660 133° Southeast 509 586 39,000 -240 Level FlightAware
05:59AM -21.5140 -47.8820 133° Southeast 507 583 38,700 -900 Descending FlightAware
05:59AM -21.5790 -47.8080 133° Southeast 507 583 37,800 -1,560 Descending FlightAware
06:00AM -21.6510 -47.7280 134° Southeast 508 585 36,500 -1,740 Descending FlightAware
06:01AM -21.7160 -47.6530 133° Southeast 508 585 35,400 -1,740 Descending FlightAware
06:01AM -21.7790 -47.5800 133° Southeast 510 587 34,200 -2,340 Descending FlightAware
06:02AM -21.8520 -47.4970 133° Southeast 512 589 32,100 -2,340 Descending FlightAware
06:03AM -21.9180 -47.4210 133° Southeast 499 574 30,900 -1,800 Descending FlightAware
06:04AM -21.9830 -47.3550 137° Southeast 476 548 29,700 -1,920 Descending FlightAware
06:04AM -22.0670 -47.3100 154° Southeast 450 518 28,200 -2,040 Descending FlightAware
06:05AM -22.1320 -47.2840 160° South 445 512 27,000 -1,920 Descending FlightAware
06:06AM -22.2240 -47.2460 159° South 438 504 25,500 -1,740 Descending FlightAware
06:06AM -22.2770 -47.2240 159° South 429 494 24,700 -1,680 Descending FlightAware
06:07AM -22.3690 -47.1860 159° South 414 476 23,300 -1,740 Descending FlightAware
06:08AM -22.4380 -47.1570 159° South 408 470 22,100 -1,860 Descending FlightAware
06:08AM -22.5140 -47.1240 158° South 403 464 20,700 -1,500 Descending FlightAware
06:09AM -22.5990 -47.0880 159° South 398 458 19,900 -1,740 Descending FlightAware
06:10AM -22.6940 -47.0490 159° South 387 445 17,800 -2,040 Descending FlightAware
06:11AM -22.7540 -47.0230 158° South 376 433 16,700 -1,440 Descending FlightAware
06:12AM -22.8300 -46.9920 159° South 348 400 15,800 -1,320 Descending FlightAware
06:12AM -22.8850 -46.9680 158° South 333 383 14,900 -1,860 Descending FlightAware
06:13AM -22.9480 -46.9420 159° South 324 373 13,200 -2,400 Descending FlightAware
06:13AM -22.9950 -46.9220 159° South 320 368 11,900 -2,100 Descending FlightAware
06:14AM -23.0630 -46.8940 159° South 292 336 10,300 -1,920 Descending FlightAware
06:15AM -23.0950 -46.8800 158° South 289 333 9,400 -1,560 Descending FlightAware
06:15AM -23.1260 -46.8670 159° South 285 328 9,000 -900 Descending FlightAware
06:16AM -23.1610 -46.8520 158° South 271 312 8,600 -600 Descending FlightAware
06:16AM -23.1950 -46.8380 159° South 253 291 8,400 -480 Descending FlightAware
06:17AM -23.2210 -46.8270 159° South 234 269 8,200 -480 Descending FlightAware
06:17AM -23.2490 -46.8150 159° South 216 249 8,000 -480 Descending FlightAware
06:18AM -23.2950 -46.7960 159° South 217 250 7,600 -540 Descending FlightAware
06:18AM -23.3190 -46.7860 159° South 216 249 7,400 -480 Descending FlightAware
06:19AM -23.3470 -46.7720 155° Southeast 211 243 7,200 -540 Descending FlightAware
06:19AM -23.3510 -46.7690 145° Southeast 216 249 7,100 -900 Descending FlightAware
06:19AM -23.3740 -46.7450 136° Southeast 224 258 6,600 -1,080 Descending FlightAware
06:20AM -23.3830 -46.7340 132° Southeast 223 257 6,300 -960 Descending FlightAware
06:20AM -23.4060 -46.7070 133° Southeast 206 237 5,900 -780 Descending FlightAware
06:20AM -23.4100 -46.7020 131° Southeast 204 235 5,800 -900 Descending FlightAware
06:21AM -23.4300 -46.6800 135° Southeast 203 234 5,400 -840 Descending FlightAware
06:21AM -23.4490 -46.6580 133° Southeast 203 234 5,000 -840 Descending FlightAware
06:22AM -23.4680 -46.6350 132° Southeast 200 230 4,600 -720 Descending FlightAware
06:22AM -23.4730 -46.6240 116° Southeast 204 235 4,500 -420 Descending FlightAware
06:22AM -23.4710 -46.6070 83° East 199 229 4,400 -300 Descending FlightAware
06:22AM -23.4690 -46.6010 70° East 197 227 4,400 -1,020 Level FlightAware
06:23AM -23.4630 -46.5780 74° East 183 211 3,900 -1,080 Descending FlightAware
06:23AM -23.4580 -46.5580 75° East 163 188 3,500 -900 Descending FlightAware
06:24AM -23.4510 -46.5340 72° East 156 180 3,100 -720 Descending FlightAware
06:24AM -23.4510 -46.5310 90° East 155 178 3,100 -720 Level FlightAware
06:24AM -23.4450 -46.5100 73° East 150 173 2,700 -780 Descending FlightAware
06:25AM -23.4400 -46.4910 74° East 145 167 2,400 -720 Descending FlightAware